Weather at Athelone Williams Memorial Airport [CLOSED]

Public forecast

Using degrees Fahrenheit for public forecast. Weather courtesy of forecast.io.

Closest aviation weather report (METAR) to Athelone Williams Memorial Airport

Closest report is Bishop International Airport, 10.1 nm (18.8 km) WSW. Retrieved 2020/10/24 04:53 UTC (14 minutes ago):

KFNT 240453Z AUTO 32014KT 10SM -RA OVC024 07/01 A3009 RMK AO2 RAB0356E04B33 SLP190 P0000 T00670011 402390067

Closest aviation forecast (TAF) to Athelone Williams Memorial Airport

Closest forecast is Bishop International Airport, 10.1 nm (18.8 km) WSW. Retrieved 2020-10-24 00:39 UTC (4 hours ago):

TAF KFNT 232336Z 2400/2424 29018G28KT P6SM BKN018 OVC025 FM240200 30014G22KT P6SM BKN018 OVC025 FM240700 32010KT P6SM SCT018 BKN025 FM241100 34008KT P6SM SCT040